Time;durP1;ratioP1;P1;durP2;ratioP2;P2;SDS_P1;SDS_P2;PMS_P1;PMS_P2;Temp;Humidity;BMP_temperature;BMP_pressure;BME280_temperature;BME280_humidity;BME280_pressure;Samples;Min_cycle;Max_cycle;Signal;HPM_P1;HPM_P2
2024/01/30 00:01:54;;;;;;;49.55;28.50;;;;;;;;;;5032616;28;20156;-86
2024/01/30 00:04:20;;;;;;;50.42;28.75;;;;;;;;;;5031993;28;20093;-86
2024/01/30 00:06:46;;;;;;;49.38;28.10;;;;;;;;;;5033202;28;20110;-86
2024/01/30 00:09:12;;;;;;;51.10;28.52;;;;;;;;;;5031853;28;20013;-86
2024/01/30 00:11:38;;;;;;;55.78;29.60;;;;;;;;;;5032316;28;20604;-86
2024/01/30 00:14:05;;;;;;;53.95;30.65;;;;;;;;;;5031861;28;20416;-86
2024/01/30 00:16:31;;;;;;;51.50;29.88;;;;;;;;;;5032106;28;20021;-86
2024/01/30 00:18:57;;;;;;;50.30;29.85;;;;;;;;;;5031758;28;20038;-86
2024/01/30 00:21:23;;;;;;;56.80;31.38;;;;;;;;;;5032426;28;20557;-86
2024/01/30 00:23:50;;;;;;;57.33;31.60;;;;;;;;;;5032077;28;20108;-86
2024/01/30 00:26:16;;;;;;;59.00;30.25;;;;;;;;;;5031429;28;20020;-86
2024/01/30 00:28:42;;;;;;;55.38;31.05;;;;;;;;;;5030899;28;20183;-86
2024/01/30 00:31:12;;;;;;;59.63;31.83;;;;;;;;;;5032082;28;20018;-85
2024/01/30 00:33:39;;;;;;;62.03;33.10;;;;;;;;;;5035157;28;20040;-85
2024/01/30 00:36:06;;;;;;;60.95;31.77;;;;;;;;;;5040555;28;20029;-86
2024/01/30 00:38:32;;;;;;;56.78;32.28;;;;;;;;;;5032418;28;20034;-86
2024/01/30 00:40:58;;;;;;;64.13;31.95;;;;;;;;;;5031581;28;20414;-86
2024/01/30 00:43:27;;;;;;;63.47;32.10;;;;;;;;;;5031722;28;20022;-85
2024/01/30 00:45:53;;;;;;;59.70;32.30;;;;;;;;;;5030670;28;20402;-85
2024/01/30 00:48:20;;;;;;;62.67;32.17;;;;;;;;;;5030959;28;20028;-86
2024/01/30 00:50:46;;;;;;;67.13;34.35;;;;;;;;;;5031335;28;20401;-85
2024/01/30 00:53:12;;;;;;;65.35;31.27;;;;;;;;;;5031178;28;20025;-86
2024/01/30 00:55:38;;;;;;;74.03;32.95;;;;;;;;;;5031656;28;20018;-86
2024/01/30 00:58:04;;;;;;;72.25;34.13;;;;;;;;;;5031739;28;20067;-85
2024/01/30 01:00:31;;;;;;;75.85;35.40;;;;;;;;;;5032594;28;20091;-86
2024/01/30 01:02:57;;;;;;;70.43;34.70;;;;;;;;;;5031708;28;20034;-86
2024/01/30 01:05:23;;;;;;;76.55;36.08;;;;;;;;;;5032536;28;20065;-85
2024/01/30 01:07:49;;;;;;;84.55;39.50;;;;;;;;;;5031670;28;20022;-86
2024/01/30 01:10:16;;;;;;;78.88;37.50;;;;;;;;;;5030748;28;20108;-86
2024/01/30 01:12:42;;;;;;;82.68;39.05;;;;;;;;;;5031830;28;20444;-86
2024/01/30 01:15:09;;;;;;;88.35;40.95;;;;;;;;;;5031222;28;20024;-85
2024/01/30 01:17:35;;;;;;;84.80;39.75;;;;;;;;;;5030477;28;20189;-86
2024/01/30 01:20:02;;;;;;;88.22;41.22;;;;;;;;;;5030325;28;20104;-86
2024/01/30 01:22:28;;;;;;;88.03;40.28;;;;;;;;;;5030739;28;20018;-85
2024/01/30 01:24:54;;;;;;;92.32;41.33;;;;;;;;;;5031979;28;20075;-85
2024/01/30 01:27:21;;;;;;;88.53;40.75;;;;;;;;;;5030340;28;20017;-84
2024/01/30 01:29:47;;;;;;;94.47;41.30;;;;;;;;;;5030620;28;20028;-86
2024/01/30 01:32:13;;;;;;;85.90;39.47;;;;;;;;;;5030771;28;20017;-85
2024/01/30 01:34:39;;;;;;;89.07;39.63;;;;;;;;;;5030965;28;20029;-85
2024/01/30 01:37:05;;;;;;;88.80;39.25;;;;;;;;;;5030926;28;20029;-85
2024/01/30 01:39:31;;;;;;;91.75;39.70;;;;;;;;;;5030533;28;20026;-85
2024/01/30 01:41:57;;;;;;;92.10;38.85;;;;;;;;;;5031045;28;20024;-86
2024/01/30 01:44:22;;;;;;;88.05;36.70;;;;;;;;;;5030791;28;20025;-85
2024/01/30 01:46:49;;;;;;;87.43;37.97;;;;;;;;;;5034665;28;20021;-85
2024/01/30 01:49:15;;;;;;;80.82;36.13;;;;;;;;;;5045571;28;20022;-86
2024/01/30 01:51:42;;;;;;;79.95;36.53;;;;;;;;;;5034326;28;20068;-85
2024/01/30 01:54:08;;;;;;;82.22;37.30;;;;;;;;;;5031667;28;20021;-86
2024/01/30 01:56:35;;;;;;;81.28;36.78;;;;;;;;;;5030495;28;20016;-86
2024/01/30 01:59:05;;;;;;;78.55;36.47;;;;;;;;;;5030020;28;20021;-86
2024/01/30 02:01:33;;;;;;;78.25;37.20;;;;;;;;;;5029858;28;20478;-86
2024/01/30 02:03:59;;;;;;;78.30;37.13;;;;;;;;;;5031080;28;20067;-86
2024/01/30 02:06:25;;;;;;;74.90;35.08;;;;;;;;;;5029886;28;20010;-86
2024/01/30 02:08:51;;;;;;;72.20;34.58;;;;;;;;;;5029754;28;20072;-85
2024/01/30 02:11:18;;;;;;;72.93;35.05;;;;;;;;;;5030169;28;20021;-86
2024/01/30 02:13:44;;;;;;;77.22;35.17;;;;;;;;;;5031438;28;20017;-86
2024/01/30 02:16:10;;;;;;;72.47;34.45;;;;;;;;;;5029427;28;20025;-85
2024/01/30 02:18:41;;;;;;;71.10;34.13;;;;;;;;;;5029318;28;20033;-86
2024/01/30 02:21:07;;;;;;;73.90;35.67;;;;;;;;;;5029880;28;20061;-85
2024/01/30 02:23:34;;;;;;;72.22;34.22;;;;;;;;;;5029583;28;20018;-86
2024/01/30 02:26:00;;;;;;;75.82;34.88;;;;;;;;;;5029407;28;20517;-86
2024/01/30 02:28:27;;;;;;;74.30;34.28;;;;;;;;;;5029128;28;20065;-86
2024/01/30 02:30:53;;;;;;;66.55;34.05;;;;;;;;;;5029718;28;20045;-86
2024/01/30 02:33:19;;;;;;;75.13;35.70;;;;;;;;;;5029528;28;20021;-85
2024/01/30 02:35:45;;;;;;;64.50;33.83;;;;;;;;;;5029202;28;20283;-85
2024/01/30 02:38:11;;;;;;;63.33;32.13;;;;;;;;;;5030794;28;20424;-86
2024/01/30 02:40:37;;;;;;;67.47;32.85;;;;;;;;;;5029620;28;20474;-85
2024/01/30 02:43:03;;;;;;;66.13;32.45;;;;;;;;;;5030390;28;20075;-86
2024/01/30 02:45:29;;;;;;;61.05;32.00;;;;;;;;;;5029015;28;20017;-85
2024/01/30 02:47:55;;;;;;;61.22;31.35;;;;;;;;;;5030206;28;20018;-86
2024/01/30 02:50:21;;;;;;;60.17;32.25;;;;;;;;;;5029104;28;20029;-86
2024/01/30 02:52:47;;;;;;;58.97;31.75;;;;;;;;;;5028558;28;20544;-86
2024/01/30 02:55:13;;;;;;;60.97;30.30;;;;;;;;;;5029374;28;20052;-86
2024/01/30 02:57:40;;;;;;;52.92;28.80;;;;;;;;;;5028845;28;20024;-86
2024/01/30 03:00:09;;;;;;;52.00;28.92;;;;;;;;;;5030676;28;20033;-86
2024/01/30 03:02:35;;;;;;;54.10;28.52;;;;;;;;;;5033162;28;20057;-86
2024/01/30 03:05:01;;;;;;;52.45;26.77;;;;;;;;;;5033654;28;20029;-86
2024/01/30 03:07:27;;;;;;;53.63;26.88;;;;;;;;;;5035311;28;20018;-86
2024/01/30 03:09:55;;;;;;;50.47;27.70;;;;;;;;;;5032910;28;20458;-86
2024/01/30 03:12:21;;;;;;;50.85;26.63;;;;;;;;;;5033030;28;20052;-86
2024/01/30 03:14:47;;;;;;;54.83;27.85;;;;;;;;;;5033457;28;20028;-86
2024/01/30 03:17:13;;;;;;;51.97;27.00;;;;;;;;;;5032971;28;20017;-86
2024/01/30 03:19:39;;;;;;;48.65;26.80;;;;;;;;;;5032703;28;20547;-86
2024/01/30 03:22:05;;;;;;;51.80;27.80;;;;;;;;;;5032883;28;20088;-86
2024/01/30 03:24:31;;;;;;;55.25;27.33;;;;;;;;;;5032764;28;20189;-86
2024/01/30 03:26:57;;;;;;;51.33;26.88;;;;;;;;;;5032373;28;20013;-86
2024/01/30 03:29:23;;;;;;;52.17;28.45;;;;;;;;;;5032554;28;20018;-86
2024/01/30 03:31:49;;;;;;;52.38;27.67;;;;;;;;;;5032605;28;20023;-85
2024/01/30 03:34:15;;;;;;;46.92;24.13;;;;;;;;;;5032584;28;20021;-85
2024/01/30 03:36:41;;;;;;;52.47;27.00;;;;;;;;;;5033237;28;20021;-85
2024/01/30 03:39:07;;;;;;;54.20;26.35;;;;;;;;;;5032468;28;20052;-86
2024/01/30 03:41:33;;;;;;;51.30;26.77;;;;;;;;;;5032756;28;20460;-86
2024/01/30 03:43:59;;;;;;;51.30;26.35;;;;;;;;;;5033428;28;20130;-86
2024/01/30 03:46:25;;;;;;;51.30;27.10;;;;;;;;;;5031884;28;20095;-86
2024/01/30 03:48:51;;;;;;;54.33;26.58;;;;;;;;;;5032463;28;20436;-85
2024/01/30 03:51:17;;;;;;;50.55;25.88;;;;;;;;;;5032713;28;20032;-86
2024/01/30 03:53:43;;;;;;;52.10;26.55;;;;;;;;;;5032193;28;20018;-86
2024/01/30 03:56:10;;;;;;;53.08;26.42;;;;;;;;;;5033754;28;20165;-86
2024/01/30 03:58:36;;;;;;;55.85;27.80;;;;;;;;;;5032716;28;20079;-86
2024/01/30 04:01:02;;;;;;;51.90;26.55;;;;;;;;;;5032913;28;20099;-86
2024/01/30 04:03:28;;;;;;;50.70;26.02;;;;;;;;;;5032207;28;20446;-85
2024/01/30 04:05:54;;;;;;;53.92;26.20;;;;;;;;;;5031687;28;20159;-86
2024/01/30 04:08:21;;;;;;;52.08;27.00;;;;;;;;;;5032143;28;20014;-86
2024/01/30 04:10:47;;;;;;;48.50;26.52;;;;;;;;;;5031174;28;20041;-86
2024/01/30 04:13:13;;;;;;;53.83;26.00;;;;;;;;;;5032339;28;20017;-86
2024/01/30 04:15:39;;;;;;;46.08;25.35;;;;;;;;;;5036145;28;20025;-86
2024/01/30 04:18:05;;;;;;;51.00;26.70;;;;;;;;;;5044542;28;20022;-86
2024/01/30 04:20:31;;;;;;;53.30;27.27;;;;;;;;;;5032888;28;20592;-86
2024/01/30 04:22:57;;;;;;;50.83;25.83;;;;;;;;;;5033774;28;20021;-86
2024/01/30 04:25:23;;;;;;;50.53;24.23;;;;;;;;;;5032092;28;20044;-86
2024/01/30 04:27:50;;;;;;;50.90;27.83;;;;;;;;;;5032428;28;20041;-86
2024/01/30 04:30:16;;;;;;;49.20;25.88;;;;;;;;;;5032655;28;20490;-85
2024/01/30 04:32:42;;;;;;;48.08;25.73;;;;;;;;;;5031614;28;20317;-84
2024/01/30 04:35:08;;;;;;;59.40;29.63;;;;;;;;;;5032054;28;20036;-86
2024/01/30 04:37:34;;;;;;;48.47;25.73;;;;;;;;;;5032169;28;20052;-86
2024/01/30 04:40:00;;;;;;;47.40;25.70;;;;;;;;;;5031004;28;20029;-86
2024/01/30 04:42:26;;;;;;;44.33;25.05;;;;;;;;;;5032667;28;20025;-86
2024/01/30 04:44:52;;;;;;;46.85;24.83;;;;;;;;;;5032150;28;20010;-86
2024/01/30 04:47:18;;;;;;;43.83;24.67;;;;;;;;;;5032571;28;20296;-86
2024/01/30 04:49:44;;;;;;;45.42;23.95;;;;;;;;;;5030952;28;20048;-86
2024/01/30 04:52:10;;;;;;;48.00;24.38;;;;;;;;;;5031048;28;20104;-86
2024/01/30 04:54:36;;;;;;;44.97;24.58;;;;;;;;;;5032455;28;20018;-86
2024/01/30 04:57:02;;;;;;;39.78;22.48;;;;;;;;;;5030882;28;20107;-87
2024/01/30 04:59:29;;;;;;;46.00;24.17;;;;;;;;;;5032367;28;20022;-86
2024/01/30 05:01:55;;;;;;;43.35;22.73;;;;;;;;;;5031601;28;20504;-86
2024/01/30 05:04:22;;;;;;;42.22;22.45;;;;;;;;;;5032222;28;20374;-86
2024/01/30 05:06:48;;;;;;;39.00;21.85;;;;;;;;;;5030953;28;20021;-86
2024/01/30 05:09:13;;;;;;;44.42;23.05;;;;;;;;;;5032332;28;20528;-85
2024/01/30 05:11:40;;;;;;;40.03;21.52;;;;;;;;;;5031202;28;20353;-85
2024/01/30 05:14:06;;;;;;;40.17;22.80;;;;;;;;;;5031572;28;20049;-86
2024/01/30 05:16:32;;;;;;;41.85;21.80;;;;;;;;;;5030401;28;20026;-86
2024/01/30 05:18:59;;;;;;;43.65;23.15;;;;;;;;;;5031046;28;20033;-86
2024/01/30 05:21:25;;;;;;;42.25;22.17;;;;;;;;;;5030631;28;20060;-85
2024/01/30 05:23:51;;;;;;;41.75;22.50;;;;;;;;;;5031042;28;20326;-85
2024/01/30 05:26:17;;;;;;;40.13;21.58;;;;;;;;;;5030431;28;20060;-86
2024/01/30 05:28:48;;;;;;;39.22;22.08;;;;;;;;;;5028088;28;20321;-86
2024/01/30 05:31:14;;;;;;;45.78;21.88;;;;;;;;;;5025107;28;20112;-86
2024/01/30 05:33:40;;;;;;;36.65;21.77;;;;;;;;;;5025115;28;20022;-86
2024/01/30 05:36:07;;;;;;;44.30;22.23;;;;;;;;;;5024681;28;20041;-86
2024/01/30 05:38:33;;;;;;;41.13;20.80;;;;;;;;;;5029992;28;20021;-86
2024/01/30 05:40:59;;;;;;;38.70;20.85;;;;;;;;;;5029832;28;20389;-86
2024/01/30 05:43:25;;;;;;;37.53;21.13;;;;;;;;;;5031733;28;20021;-86
2024/01/30 05:45:52;;;;;;;37.92;21.27;;;;;;;;;;5029812;28;20020;-86
2024/01/30 05:48:18;;;;;;;36.05;20.58;;;;;;;;;;5030416;28;20076;-86
2024/01/30 05:50:45;;;;;;;34.55;20.45;;;;;;;;;;5029703;28;20057;-86
2024/01/30 05:53:11;;;;;;;36.42;21.02;;;;;;;;;;5030480;28;20018;-87
2024/01/30 05:55:37;;;;;;;38.00;21.08;;;;;;;;;;5031566;28;20009;-87
2024/01/30 05:58:03;;;;;;;33.78;20.08;;;;;;;;;;5030829;28;20018;-86
2024/01/30 06:00:29;;;;;;;32.50;19.90;;;;;;;;;;5029709;28;20018;-86
2024/01/30 06:02:55;;;;;;;35.00;18.55;;;;;;;;;;5029031;28;20029;-86
2024/01/30 06:05:21;;;;;;;32.42;19.45;;;;;;;;;;5029437;28;20013;-86
2024/01/30 06:07:47;;;;;;;35.28;19.67;;;;;;;;;;5028848;28;20233;-86
2024/01/30 06:10:13;;;;;;;32.92;18.92;;;;;;;;;;5029299;28;20108;-87
2024/01/30 06:12:40;;;;;;;30.13;18.83;;;;;;;;;;5023535;28;20293;-87
2024/01/30 06:15:06;;;;;;;36.50;19.75;;;;;;;;;;5026003;28;20021;-87
2024/01/30 06:17:32;;;;;;;29.90;18.60;;;;;;;;;;5025216;28;20021;-87
2024/01/30 06:19:59;;;;;;;30.40;19.88;;;;;;;;;;5029556;28;20025;-86
2024/01/30 06:22:25;;;;;;;30.23;18.50;;;;;;;;;;5028924;28;20014;-86
2024/01/30 06:24:51;;;;;;;29.48;17.83;;;;;;;;;;5030252;28;20014;-86
2024/01/30 06:27:17;;;;;;;28.33;17.85;;;;;;;;;;5029126;28;20053;-87
2024/01/30 06:29:44;;;;;;;31.40;17.48;;;;;;;;;;5028922;28;20020;-86
2024/01/30 06:32:10;;;;;;;31.77;18.00;;;;;;;;;;5029574;28;20022;-86
2024/01/30 06:34:36;;;;;;;25.98;17.10;;;;;;;;;;5028117;28;20686;-86
2024/01/30 06:37:02;;;;;;;28.30;17.75;;;;;;;;;;5029028;28;20117;-86
2024/01/30 06:39:28;;;;;;;27.88;17.98;;;;;;;;;;5030604;28;20116;-86
2024/01/30 06:41:54;;;;;;;29.67;17.13;;;;;;;;;;5031340;28;20086;-86
2024/01/30 06:44:20;;;;;;;28.65;17.15;;;;;;;;;;5029295;28;20351;-86
2024/01/30 06:46:46;;;;;;;31.92;18.25;;;;;;;;;;5031142;28;20024;-87
2024/01/30 06:49:12;;;;;;;28.75;18.20;;;;;;;;;;5033693;28;20025;-87
2024/01/30 06:51:38;;;;;;;28.17;16.90;;;;;;;;;;5028798;28;20021;-86
2024/01/30 06:54:04;;;;;;;25.50;16.98;;;;;;;;;;5028690;28;20382;-87
2024/01/30 06:56:30;;;;;;;31.05;18.50;;;;;;;;;;5028598;28;20489;-87
2024/01/30 06:58:58;;;;;;;29.92;16.67;;;;;;;;;;5023076;28;20533;-86
2024/01/30 07:01:29;;;;;;;25.67;17.00;;;;;;;;;;5025326;28;20025;-86
2024/01/30 07:03:55;;;;;;;28.52;17.23;;;;;;;;;;5028902;28;20062;-86
2024/01/30 07:06:22;;;;;;;29.50;16.95;;;;;;;;;;5017648;28;20010;-87
2024/01/30 07:08:48;;;;;;;29.15;17.33;;;;;;;;;;5024211;28;20025;-86
2024/01/30 07:11:19;;;;;;;31.42;17.00;;;;;;;;;;5020996;28;20478;-86
2024/01/30 07:13:46;;;;;;;26.45;17.25;;;;;;;;;;5023683;28;20045;-86
2024/01/30 07:16:12;;;;;;;25.17;16.50;;;;;;;;;;5028284;28;20017;-87
2024/01/30 07:18:38;;;;;;;26.88;16.10;;;;;;;;;;5028518;28;20024;-86
2024/01/30 07:21:04;;;;;;;28.50;16.83;;;;;;;;;;5028695;28;20018;-86
2024/01/30 07:23:30;;;;;;;27.33;17.42;;;;;;;;;;5028672;28;20021;-87
2024/01/30 07:25:56;;;;;;;24.35;15.70;;;;;;;;;;5029183;28;20018;-87
2024/01/30 07:28:22;;;;;;;27.63;15.63;;;;;;;;;;5027500;28;20029;-86
2024/01/30 07:30:48;;;;;;;26.80;15.40;;;;;;;;;;5027455;28;20505;-86
2024/01/30 07:33:15;;;;;;;25.48;15.65;;;;;;;;;;5028765;28;20052;-85
2024/01/30 07:35:41;;;;;;;27.63;15.95;;;;;;;;;;5027477;28;20101;-86
2024/01/30 07:38:07;;;;;;;26.45;15.98;;;;;;;;;;5028487;28;20045;-86
2024/01/30 07:40:33;;;;;;;23.70;15.32;;;;;;;;;;5027875;28;20092;-86
2024/01/30 07:43:00;;;;;;;22.17;15.38;;;;;;;;;;5028396;28;20017;-86
2024/01/30 07:45:27;;;;;;;25.02;16.25;;;;;;;;;;5028629;28;20490;-86
2024/01/30 07:47:53;;;;;;;24.52;15.52;;;;;;;;;;5031415;28;20037;-87
2024/01/30 07:50:19;;;;;;;25.13;15.88;;;;;;;;;;5032102;28;20041;-86
2024/01/30 07:52:45;;;;;;;26.00;16.08;;;;;;;;;;5032515;28;20656;-87
2024/01/30 07:55:12;;;;;;;24.48;15.75;;;;;;;;;;5036767;28;20071;-86
2024/01/30 07:57:42;;;;;;;23.63;15.88;;;;;;;;;;5041229;28;20104;-87
2024/01/30 08:00:08;;;;;;;;;;;;;;;;;;5032212;28;20261;-87
2024/01/30 08:02:34;;;;;;;26.08;15.30;;;;;;;;;;5031954;28;19909;-86
2024/01/30 08:05:00;;;;;;;23.15;14.90;;;;;;;;;;5032475;28;20013;-87
2024/01/30 08:07:29;;;;;;;24.95;15.45;;;;;;;;;;5024968;28;20025;-87
2024/01/30 08:09:55;;;;;;;23.83;15.63;;;;;;;;;;5025709;28;20022;-86
2024/01/30 08:12:21;;;;;;;24.88;16.08;;;;;;;;;;5021855;28;20467;-87
2024/01/30 08:14:47;;;;;;;22.90;14.23;;;;;;;;;;5032179;28;20021;-87
2024/01/30 08:17:13;;;;;;;24.10;15.43;;;;;;;;;;5033573;28;20057;-86
2024/01/30 08:19:39;;;;;;;24.60;14.30;;;;;;;;;;5030666;28;20068;-86
2024/01/30 08:22:05;;;;;;;27.83;15.27;;;;;;;;;;5029029;28;20022;-87
2024/01/30 08:24:31;;;;;;;24.42;14.18;;;;;;;;;;5031180;28;20079;-87
2024/01/30 08:26:58;;;;;;;23.95;15.55;;;;;;;;;;5031590;28;20056;-87
2024/01/30 08:29:24;;;;;;;25.23;15.23;;;;;;;;;;5030519;28;20017;-86
2024/01/30 08:31:50;;;;;;;26.30;14.90;;;;;;;;;;5031975;28;20026;-86
2024/01/30 08:34:16;;;;;;;24.48;15.30;;;;;;;;;;5031180;28;20375;-87
2024/01/30 08:36:42;;;;;;;27.13;14.85;;;;;;;;;;5030402;28;20141;-86
2024/01/30 08:39:08;;;;;;;21.88;14.35;;;;;;;;;;5031043;28;20044;-87
2024/01/30 08:41:34;;;;;;;22.65;14.23;;;;;;;;;;5031052;28;20164;-86
2024/01/30 08:44:00;;;;;;;25.40;15.25;;;;;;;;;;5031137;28;20234;-87
2024/01/30 08:46:26;;;;;;;27.80;14.77;;;;;;;;;;5030680;28;20029;-87
2024/01/30 08:48:53;;;;;;;22.83;14.40;;;;;;;;;;5031364;28;20521;-87
2024/01/30 08:51:19;;;;;;;23.00;13.75;;;;;;;;;;5030980;28;20429;-87
2024/01/30 08:53:45;;;;;;;25.40;14.15;;;;;;;;;;5031252;28;20021;-87
2024/01/30 08:56:11;;;;;;;26.83;14.73;;;;;;;;;;5031508;28;20029;-87
2024/01/30 08:58:37;;;;;;;23.50;13.93;;;;;;;;;;5030804;28;20424;-87
2024/01/30 09:01:05;;;;;;;29.48;14.50;;;;;;;;;;5030548;28;20029;-87
2024/01/30 09:03:31;;;;;;;27.88;14.13;;;;;;;;;;5030018;28;20037;-87
2024/01/30 09:05:57;;;;;;;23.33;14.07;;;;;;;;;;5023707;28;20026;-86
2024/01/30 09:08:23;;;;;;;23.15;14.07;;;;;;;;;;5013310;28;20018;-88
2024/01/30 09:10:49;;;;;;;27.05;14.05;;;;;;;;;;5030225;28;20030;-88
2024/01/30 09:13:16;;;;;;;24.88;13.75;;;;;;;;;;5011861;28;20072;-87
2024/01/30 09:15:42;;;;;;;21.17;13.52;;;;;;;;;;5029759;28;20027;-87
2024/01/30 09:18:08;;;;;;;21.88;13.35;;;;;;;;;;5030294;28;20034;-87
2024/01/30 09:20:34;;;;;;;23.25;13.95;;;;;;;;;;5029896;28;20037;-87
2024/01/30 09:23:00;;;;;;;21.23;13.65;;;;;;;;;;5020852;28;20026;-87
2024/01/30 09:25:26;;;;;;;20.88;13.50;;;;;;;;;;5025008;28;20034;-87
2024/01/30 09:27:52;;;;;;;25.25;14.52;;;;;;;;;;5030367;28;20017;-87
2024/01/30 09:30:18;;;;;;;22.00;13.73;;;;;;;;;;5029427;28;20031;-87
2024/01/30 09:32:44;;;;;;;21.95;13.40;;;;;;;;;;5029502;28;20033;-87
2024/01/30 09:35:11;;;;;;;18.90;12.95;;;;;;;;;;5012970;28;20103;-86
2024/01/30 09:37:37;;;;;;;24.50;13.15;;;;;;;;;;5029296;28;20017;-86
2024/01/30 09:40:03;;;;;;;22.70;12.90;;;;;;;;;;5029401;28;20249;-87
2024/01/30 09:42:36;;;;;;;23.40;12.00;;;;;;;;;;5030070;28;20393;-87
2024/01/30 09:45:03;;;;;;;19.35;10.50;;;;;;;;;;5028370;28;20018;-87
2024/01/30 09:47:32;;;;;;;16.17;9.30;;;;;;;;;;5029480;28;20253;-87
2024/01/30 09:49:59;;;;;;;17.27;8.60;;;;;;;;;;5029608;28;20035;-87
2024/01/30 09:52:25;;;;;;;15.52;8.15;;;;;;;;;;5030100;28;20085;-87
2024/01/30 09:54:52;;;;;;;17.85;7.65;;;;;;;;;;5029590;28;20025;-86
2024/01/30 09:57:18;;;;;;;14.73;7.35;;;;;;;;;;5030097;28;20501;-87
2024/01/30 09:59:44;;;;;;;14.68;7.22;;;;;;;;;;5029599;28;20021;-87
2024/01/30 10:02:10;;;;;;;13.57;6.57;;;;;;;;;;5030589;28;20030;-88
2024/01/30 10:04:36;;;;;;;13.70;5.72;;;;;;;;;;5029437;28;20021;-87
2024/01/30 10:07:03;;;;;;;16.33;6.18;;;;;;;;;;5030322;28;20036;-87
2024/01/30 10:09:32;;;;;;;21.98;5.80;;;;;;;;;;5029377;28;20108;-88
2024/01/30 10:11:58;;;;;;;17.20;5.65;;;;;;;;;;5029348;28;20094;-88
2024/01/30 10:14:25;;;;;;;13.98;5.88;;;;;;;;;;5029521;28;20049;-87
2024/01/30 10:16:51;;;;;;;14.77;5.22;;;;;;;;;;5029624;28;20501;-87
2024/01/30 10:19:17;;;;;;;13.40;5.45;;;;;;;;;;5029648;28;20021;-87
2024/01/30 10:21:43;;;;;;;15.38;5.38;;;;;;;;;;5050355;28;20009;-87
2024/01/30 10:24:12;;;;;;;13.00;5.32;;;;;;;;;;5034289;28;20041;-87
2024/01/30 10:26:38;;;;;;;14.60;6.22;;;;;;;;;;5030509;28;20056;-87
2024/01/30 10:29:05;;;;;;;20.92;5.78;;;;;;;;;;5029415;28;20034;-87
2024/01/30 10:31:31;;;;;;;11.00;4.45;;;;;;;;;;5029290;28;20445;-87
2024/01/30 10:33:57;;;;;;;14.95;4.50;;;;;;;;;;5028592;28;20029;-87
2024/01/30 10:36:28;;;;;;;12.57;4.30;;;;;;;;;;5029500;28;20482;-87
2024/01/30 10:38:55;;;;;;;11.38;4.05;;;;;;;;;;5028800;28;20029;-87
2024/01/30 10:41:26;;;;;;;11.40;4.10;;;;;;;;;;5030510;28;20060;-87
2024/01/30 10:44:03;;;;;;;10.48;3.25;;;;;;;;;;5029130;28;20033;-87
2024/01/30 10:46:33;;;;;;;9.45;2.72;;;;;;;;;;5029362;28;20447;-87
2024/01/30 10:48:59;;;;;;;6.00;2.42;;;;;;;;;;5028932;28;20037;-87
2024/01/30 10:51:29;;;;;;;7.13;2.10;;;;;;;;;;5029036;28;20056;-87
2024/01/30 10:53:56;;;;;;;7.35;2.17;;;;;;;;;;5029773;28;20034;-87
2024/01/30 10:56:22;;;;;;;5.00;2.08;;;;;;;;;;5028730;28;20038;-87
2024/01/30 10:58:51;;;;;;;6.60;1.73;;;;;;;;;;5028776;28;20112;-87
2024/01/30 11:01:17;;;;;;;7.13;2.00;;;;;;;;;;5029099;28;20541;-87
2024/01/30 11:03:43;;;;;;;7.75;1.65;;;;;;;;;;5029873;28;20045;-87
2024/01/30 11:06:18;;;;;;;6.22;1.80;;;;;;;;;;5025514;28;20033;-87
2024/01/30 11:08:44;;;;;;;6.95;1.60;;;;;;;;;;5019140;28;20026;-87
2024/01/30 11:11:10;;;;;;;8.13;1.70;;;;;;;;;;5011593;28;20076;-87
2024/01/30 11:13:36;;;;;;;7.65;1.65;;;;;;;;;;5013366;28;20038;-87
2024/01/30 11:16:03;;;;;;;8.75;1.75;;;;;;;;;;5029253;28;20060;-88
2024/01/30 11:18:33;;;;;;;7.80;1.27;;;;;;;;;;5029849;28;20461;-87
2024/01/30 11:21:01;;;;;;;3.88;1.20;;;;;;;;;;5029863;28;20482;-87
2024/01/30 11:23:27;;;;;;;9.20;1.80;;;;;;;;;;5031828;28;20029;-87
2024/01/30 11:25:54;;;;;;;5.63;2.65;;;;;;;;;;5032886;28;20025;-87
2024/01/30 11:28:22;;;;;;;10.73;1.63;;;;;;;;;;5033003;28;20030;-87
2024/01/30 11:30:50;;;;;;;7.75;1.90;;;;;;;;;;5025549;28;20095;-86
2024/01/30 11:33:16;;;;;;;5.82;1.25;;;;;;;;;;5013028;28;20026;-88
2024/01/30 11:35:43;;;;;;;6.88;2.22;;;;;;;;;;5026915;28;20045;-87
2024/01/30 11:38:10;;;;;;;8.43;2.10;;;;;;;;;;5044817;28;20079;-87
2024/01/30 11:40:37;;;;;;;4.78;2.10;;;;;;;;;;5031973;28;20061;-87
2024/01/30 11:43:04;;;;;;;9.90;1.85;;;;;;;;;;5031604;28;20022;-87
2024/01/30 11:45:31;;;;;;;7.10;1.80;;;;;;;;;;5033061;28;20452;-87
2024/01/30 11:47:57;;;;;;;9.00;1.75;;;;;;;;;;5032174;28;20038;-87
2024/01/30 11:50:23;;;;;;;8.52;1.60;;;;;;;;;;5031315;28;20026;-87
2024/01/30 11:52:49;;;;;;;6.45;1.50;;;;;;;;;;5032299;28;20029;-87
2024/01/30 11:55:15;;;;;;;6.25;1.83;;;;;;;;;;5032306;28;20052;-87
2024/01/30 11:57:42;;;;;;;8.55;1.45;;;;;;;;;;5032043;28;20021;-87
2024/01/30 12:00:15;;;;;;;4.80;1.27;;;;;;;;;;5026439;28;20029;-87
2024/01/30 12:02:41;;;;;;;5.82;1.10;;;;;;;;;;5022752;28;20116;-86
2024/01/30 12:05:07;;;;;;;7.15;1.20;;;;;;;;;;5011442;28;20014;-85
2024/01/30 12:07:34;;;;;;;4.90;1.23;;;;;;;;;;5027885;28;20060;-86
2024/01/30 12:10:00;;;;;;;6.93;1.30;;;;;;;;;;5031410;28;20553;-86
2024/01/30 12:12:27;;;;;;;5.45;1.00;;;;;;;;;;5030999;28;20034;-86
2024/01/30 12:14:53;;;;;;;7.90;1.30;;;;;;;;;;5026998;28;20263;-86
2024/01/30 12:17:29;;;;;;;7.57;2.05;;;;;;;;;;5027171;28;20311;-87
2024/01/30 12:20:08;;;;;;;6.20;1.58;;;;;;;;;;5030811;28;20025;-87
2024/01/30 12:22:38;;;;;;;4.97;1.25;;;;;;;;;;5031560;28;20132;-86
2024/01/30 12:25:04;;;;;;;;;;;;;;;;;;5033165;28;20013;-86
2024/01/30 12:27:30;;;;;;;4.32;1.20;;;;;;;;;;5031485;28;20380;-87
2024/01/30 12:29:57;;;;;;;5.25;1.20;;;;;;;;;;5030740;28;20028;-86
2024/01/30 12:32:24;;;;;;;3.03;1.23;;;;;;;;;;5030397;28;20037;-86
2024/01/30 12:34:50;;;;;;;4.25;1.23;;;;;;;;;;5032107;28;20087;-86
2024/01/30 12:37:22;;;;;;;4.53;1.40;;;;;;;;;;5030582;28;20022;-85
2024/01/30 12:39:49;;;;;;;5.70;1.30;;;;;;;;;;5033516;28;20036;-86
2024/01/30 12:42:15;;;;;;;5.47;1.00;;;;;;;;;;5041834;28;20051;-86
2024/01/30 12:44:41;;;;;;;4.82;0.95;;;;;;;;;;5042561;28;20470;-86
2024/01/30 12:47:10;;;;;;;3.85;1.42;;;;;;;;;;5039684;28;20461;-86
2024/01/30 12:49:36;;;;;;;4.20;1.10;;;;;;;;;;5031985;28;20026;-86
2024/01/30 12:52:02;;;;;;;3.10;1.00;;;;;;;;;;5030094;28;20029;-86
2024/01/30 12:54:28;;;;;;;3.30;1.08;;;;;;;;;;5031343;28;20116;-86
2024/01/30 12:56:56;;;;;;;4.95;1.42;;;;;;;;;;5030188;28;20385;-86
2024/01/30 12:59:22;;;;;;;2.88;1.55;;;;;;;;;;5030643;28;20052;-86
2024/01/30 13:01:48;;;;;;;5.35;1.15;;;;;;;;;;5031075;28;20014;-86
2024/01/30 13:04:15;;;;;;;5.97;1.17;;;;;;;;;;5029091;28;20068;-85
2024/01/30 13:06:40;;;;;;;4.57;1.08;;;;;;;;;;5010125;28;20117;-85
2024/01/30 13:09:07;;;;;;;4.32;1.02;;;;;;;;;;5010521;28;20121;-87
2024/01/30 13:11:34;;;;;;;2.50;1.10;;;;;;;;;;5013153;28;20077;-86
2024/01/30 13:14:00;;;;;;;3.40;1.15;;;;;;;;;;5030105;28;20289;-87
2024/01/30 13:16:26;;;;;;;7.78;1.38;;;;;;;;;;5032231;28;20056;-87
2024/01/30 13:18:52;;;;;;;2.75;1.10;;;;;;;;;;5032467;28;20037;-87
2024/01/30 13:21:18;;;;;;;5.80;1.38;;;;;;;;;;5027469;28;20116;-86
2024/01/30 13:23:44;;;;;;;5.57;1.63;;;;;;;;;;5017911;28;20497;-87
2024/01/30 13:26:10;;;;;;;5.75;1.33;;;;;;;;;;5017256;28;20030;-87
2024/01/30 13:28:36;;;;;;;4.45;1.48;;;;;;;;;;5029613;28;20484;-83
2024/01/30 13:31:02;;;;;;;4.57;1.20;;;;;;;;;;5025452;28;20037;-84
2024/01/30 13:33:28;;;;;;;8.35;2.13;;;;;;;;;;5034405;28;20034;-83
2024/01/30 13:35:54;;;;;;;6.43;1.73;;;;;;;;;;5027757;28;20033;-83
2024/01/30 13:38:20;;;;;;;5.78;1.63;;;;;;;;;;5026792;28;20434;-83
2024/01/30 13:40:46;;;;;;;5.60;2.35;;;;;;;;;;5017982;28;20030;-83
2024/01/30 13:43:12;;;;;;;4.75;1.73;;;;;;;;;;5021614;28;20044;-83
2024/01/30 13:45:38;;;;;;;5.95;1.60;;;;;;;;;;5022044;28;20053;-84
2024/01/30 13:48:04;;;;;;;5.35;2.08;;;;;;;;;;5020851;28;20079;-84
2024/01/30 13:50:30;;;;;;;6.15;1.65;;;;;;;;;;5016861;28;20121;-83
2024/01/30 13:52:56;;;;;;;8.05;1.80;;;;;;;;;;5022475;28;20433;-84
2024/01/30 13:55:23;;;;;;;6.28;1.60;;;;;;;;;;5028069;28;20025;-83
2024/01/30 13:57:49;;;;;;;6.95;1.58;;;;;;;;;;5029965;28;20025;-82
2024/01/30 14:00:16;;;;;;;4.55;1.60;;;;;;;;;;5028777;28;20036;-81
2024/01/30 14:02:42;;;;;;;8.30;1.50;;;;;;;;;;5028721;28;20037;-82
2024/01/30 14:05:08;;;;;;;4.43;1.80;;;;;;;;;;5028217;28;20060;-82
2024/01/30 14:07:36;;;;;;;4.75;1.52;;;;;;;;;;5027955;28;20018;-83
2024/01/30 14:10:02;;;;;;;5.97;1.77;;;;;;;;;;5026939;28;20028;-83
2024/01/30 14:12:30;;;;;;;4.18;1.40;;;;;;;;;;5019477;28;20026;-83
2024/01/30 14:14:56;;;;;;;7.20;1.55;;;;;;;;;;5026142;28;20405;-83
2024/01/30 14:17:22;;;;;;;5.25;1.65;;;;;;;;;;5021160;28;20501;-83
2024/01/30 14:19:48;;;;;;;5.82;1.60;;;;;;;;;;5016820;28;20036;-83
2024/01/30 14:22:14;;;;;;;3.28;1.52;;;;;;;;;;5023173;28;20026;-83